createdAt,value
2023-04-05T00:09:54.886Z,80.82
2023-04-05T00:19:58.142Z,80.64
2023-04-05T00:30:00.219Z,81.70
2023-04-05T00:40:02.108Z,83.73
2023-04-05T00:50:04.432Z,83.83
2023-04-05T01:00:09.845Z,83.93
2023-04-05T01:10:18.057Z,85.61
2023-04-05T01:20:20.895Z,88.64
2023-04-05T01:30:28.529Z,89.55
2023-04-05T01:40:31.762Z,87.57
2023-04-05T01:50:33.678Z,87.56
2023-04-05T02:00:35.641Z,87.65
2023-04-05T02:10:39.841Z,89.63
2023-04-05T02:20:50.713Z,86.07
2023-04-05T02:30:52.843Z,86.94
2023-04-05T02:40:55.572Z,86.38
2023-04-05T02:50:57.570Z,85.96
2023-04-05T03:01:07.581Z,87.28
2023-04-05T03:11:10.634Z,88.28
2023-04-05T03:21:12.644Z,89.22
2023-04-05T03:31:14.697Z,87.54
2023-04-05T03:41:16.670Z,89.52
2023-04-05T03:51:19.256Z,87.81
2023-04-05T04:01:21.662Z,86.57
2023-04-05T04:11:23.635Z,86.50
2023-04-05T04:21:27.567Z,86.91
2023-04-05T04:31:29.523Z,86.25
2023-04-05T04:41:38.560Z,84.07
2023-04-05T04:51:40.807Z,84.88
2023-04-05T05:01:45.818Z,84.86
2023-04-05T05:11:47.798Z,85.10
2023-04-05T05:22:15.737Z,84.83
2023-04-05T05:32:17.867Z,84.49
2023-04-05T05:42:27.558Z,84.23
2023-04-05T05:52:31.961Z,85.04
2023-04-05T06:02:47.076Z,84.14
2023-04-05T06:12:49.250Z,83.24
2023-04-05T06:22:55.227Z,80.87
2023-04-05T06:32:57.665Z,80.87
2023-04-05T06:43:02.044Z,81.15
2023-04-05T06:53:04.958Z,81.07
2023-04-05T07:03:07.017Z,79.08
2023-04-05T07:13:34.002Z,76.94
2023-04-05T07:23:43.913Z,75.90
2023-04-05T07:33:45.963Z,73.77
2023-04-05T07:43:48.006Z,72.88
2023-04-05T07:53:50.019Z,69.76
2023-04-05T08:03:52.008Z,68.27
2023-04-05T08:14:00.302Z,68.37
2023-04-05T08:24:05.129Z,66.46
2023-04-05T08:34:11.414Z,64.70
2023-04-05T08:44:31.509Z,63.36
2023-04-05T08:54:34.570Z,62.23
2023-04-05T09:04:40.796Z,59.86
2023-04-05T09:14:44.598Z,61.26
2023-04-05T09:24:51.384Z,61.46
2023-04-05T09:35:04.835Z,58.04
2023-04-05T09:45:15.326Z,55.97
2023-04-05T09:55:49.757Z,56.09
2023-04-05T10:05:58.953Z,54.63
2023-04-05T10:16:10.549Z,51.69
2023-04-05T10:26:29.405Z,48.33
2023-04-05T10:37:04.061Z,45.32
2023-04-05T10:47:10.816Z,48.37
2023-04-05T10:57:13.816Z,46.29
2023-04-05T11:07:18.167Z,46.27
2023-04-05T11:17:28.382Z,45.05
2023-04-05T11:27:37.872Z,43.72
2023-04-05T11:38:02.611Z,45.56
2023-04-05T11:48:10.230Z,43.18
2023-04-05T11:58:22.691Z,45.65
2023-04-05T12:08:48.656Z,44.25
2023-04-05T12:18:55.246Z,43.05
2023-04-05T12:29:04.650Z,43.00
2023-04-05T12:39:08.143Z,45.11
2023-04-05T12:49:16.284Z,44.53
2023-04-05T12:59:24.997Z,45.65
2023-04-05T13:09:27.562Z,46.79
2023-04-05T13:19:31.575Z,46.92
2023-04-05T13:29:34.561Z,46.11
2023-04-05T13:39:44.382Z,47.29
2023-04-05T13:49:50.804Z,44.86
2023-04-05T14:00:01.052Z,45.35
2023-04-05T14:10:06.410Z,44.68
2023-04-05T14:20:17.646Z,45.67
2023-04-05T14:30:26.540Z,45.21
2023-04-05T14:40:28.675Z,46.35
2023-04-05T14:50:36.085Z,45.10
2023-04-05T15:00:38.234Z,46.11
2023-04-05T15:10:43.152Z,46.15
2023-04-05T15:20:46.477Z,47.09
2023-04-05T15:30:51.476Z,46.15
2023-04-05T15:40:54.603Z,48.68
2023-04-05T15:51:08.619Z,49.19
2023-04-05T16:01:14.255Z,47.92
2023-04-05T16:11:18.421Z,48.47
2023-04-05T16:21:31.306Z,48.53
2023-04-05T16:31:36.019Z,47.88
2023-04-05T16:41:40.229Z,48.56
2023-04-05T16:51:44.340Z,51.80
2023-04-05T17:01:47.352Z,52.54
2023-04-05T17:11:51.722Z,50.84
2023-04-05T17:22:00.602Z,53.32
2023-04-05T17:32:16.989Z,55.02
2023-04-05T17:42:25.152Z,54.10
2023-04-05T17:52:31.643Z,53.92
2023-04-05T18:02:37.726Z,52.58
2023-04-05T18:12:56.644Z,55.10
2023-04-05T18:23:00.922Z,55.45
2023-04-05T18:33:10.714Z,56.25
2023-04-05T18:43:15.077Z,55.52
2023-04-05T18:53:17.171Z,54.59
2023-04-05T19:03:27.543Z,55.34
2023-04-05T19:13:31.286Z,57.35
2023-04-05T19:23:37.277Z,54.32
2023-04-05T19:33:39.463Z,54.61
2023-04-05T19:43:41.986Z,53.73
2023-04-05T19:53:48.431Z,53.73
2023-04-05T20:04:02.497Z,55.25
2023-04-05T20:14:11.311Z,54.25
2023-04-05T20:24:16.837Z,52.31
2023-04-05T20:34:31.279Z,54.63
2023-04-05T20:44:33.349Z,55.22
2023-04-05T20:54:36.287Z,54.05
2023-04-05T21:04:38.451Z,53.86
2023-04-05T21:14:40.456Z,56.33
2023-04-05T21:24:45.518Z,53.96
2023-04-05T21:34:47.496Z,51.39
2023-04-05T21:44:51.926Z,51.48
2023-04-05T21:54:53.860Z,53.07
2023-04-05T22:04:55.892Z,53.22
2023-04-05T22:14:57.934Z,55.68
2023-04-05T22:25:02.904Z,54.45
2023-04-05T22:35:11.398Z,54.70
2023-04-05T22:45:16.632Z,54.86
2023-04-05T22:55:19.750Z,54.41
2023-04-05T23:05:21.685Z,56.54
2023-04-05T23:15:29.543Z,55.31
2023-04-05T23:25:32.445Z,55.19
2023-04-05T23:35:34.384Z,55.27
2023-04-05T23:45:36.538Z,55.69
2023-04-05T23:55:42.101Z,55.41
